Time;durP1;ratioP1;P1;durP2;ratioP2;P2;SDS_P1;SDS_P2;PMS_P1;PMS_P2;Temp;Humidity;BMP_temperature;BMP_pressure;BME280_temperature;BME280_humidity;BME280_pressure;Samples;Min_cycle;Max_cycle;Signal;HPM_P1;HPM_P2
2023/01/31 00:01:53;;;;;;;9.15;4.32;;;1.70;99.90;;;;;;4971238;28;20046;-75
2023/01/31 00:04:20;;;;;;;3.55;3.25;;;1.80;99.90;;;;;;4971121;28;20585;-76
2023/01/31 00:06:50;;;;;;;3.50;3.20;;;1.80;99.90;;;;;;4954179;28;20435;-76
2023/01/31 00:09:18;;;;;;;10.13;4.18;;;1.80;99.90;;;;;;4961109;28;20051;-76
2023/01/31 00:11:47;;;;;;;7.25;4.68;;;1.80;99.90;;;;;;4953624;28;20079;-76
2023/01/31 00:14:19;;;;;;;4.30;3.90;;;1.80;99.90;;;;;;4970440;28;20507;-76
2023/01/31 00:16:47;;;;;;;5.32;4.32;;;1.80;99.90;;;;;;4971300;28;20065;-76
2023/01/31 00:19:15;;;;;;;8.18;5.22;;;1.80;99.90;;;;;;4971723;28;20531;-74
2023/01/31 00:21:44;;;;;;;6.47;4.78;;;1.90;99.90;;;;;;4954209;28;20370;-75
2023/01/31 00:24:13;;;;;;;8.77;3.83;;;1.80;99.90;;;;;;4969638;28;20062;-76
2023/01/31 00:26:40;;;;;;;6.82;4.72;;;1.90;99.90;;;;;;4970364;28;20051;-76
2023/01/31 00:29:08;;;;;;;11.73;4.88;;;1.90;99.90;;;;;;4937900;28;20043;-74
2023/01/31 00:31:36;;;;;;;7.32;4.80;;;2.00;99.90;;;;;;4969106;28;20057;-75
2023/01/31 00:34:05;;;;;;;5.70;4.13;;;1.90;99.90;;;;;;4969233;28;20526;-76
2023/01/31 00:36:34;;;;;;;5.07;4.28;;;1.90;99.90;;;;;;4937591;28;20050;-76
2023/01/31 00:39:05;;;;;;;7.75;3.95;;;1.90;99.90;;;;;;4952892;28;20055;-76
2023/01/31 00:41:34;;;;;;;5.85;4.72;;;1.90;99.90;;;;;;4963374;28;20043;-76
2023/01/31 00:44:05;;;;;;;9.38;5.47;;;1.80;99.90;;;;;;4938014;28;20047;-76
2023/01/31 00:46:33;;;;;;;8.55;4.25;;;1.90;99.90;;;;;;4953423;28;20055;-76
2023/01/31 00:49:02;;;;;;;5.03;4.40;;;1.90;99.90;;;;;;4953259;28;20039;-76
2023/01/31 00:51:30;;;;;;;6.68;4.30;;;1.90;99.90;;;;;;4954314;28;20062;-76
2023/01/31 00:53:58;;;;;;;6.75;4.63;;;1.90;99.90;;;;;;4951903;28;20050;-76
2023/01/31 00:56:26;;;;;;;7.20;5.00;;;1.90;99.90;;;;;;4950454;28;20054;-75
2023/01/31 00:58:54;;;;;;;5.15;4.20;;;1.90;99.90;;;;;;4971523;28;20093;-76
2023/01/31 01:01:25;;;;;;;3.50;3.13;;;1.90;99.90;;;;;;4970094;28;20309;-76
2023/01/31 01:03:55;;;;;;;7.20;4.07;;;1.90;99.90;;;;;;4935888;28;20063;-76
2023/01/31 01:06:23;;;;;;;6.53;3.95;;;1.90;99.90;;;;;;4953616;28;20057;-76
2023/01/31 01:08:51;;;;;;;10.80;4.57;;;1.90;99.90;;;;;;4951849;28;20773;-76
2023/01/31 01:11:22;;;;;;;6.75;3.63;;;1.90;99.90;;;;;;4937505;28;20051;-75
2023/01/31 01:13:50;;;;;;;5.97;4.00;;;1.80;99.90;;;;;;4968537;28;20050;-76
2023/01/31 01:16:32;;;;;;;4.10;3.50;;;1.70;99.90;;;;;;4952459;28;20042;-75
2023/01/31 01:19:05;;;;;;;10.45;4.50;;;1.90;99.90;;;;;;4953137;28;20511;-76
2023/01/31 01:21:39;;;;;;;4.32;3.88;;;1.80;99.90;;;;;;4968901;28;20409;-76
2023/01/31 01:24:12;;;;;;;6.60;4.15;;;1.80;99.90;;;;;;4941750;28;20397;-75
2023/01/31 01:26:40;;;;;;;8.73;5.18;;;1.80;99.90;;;;;;4970065;28;20069;-75
2023/01/31 01:29:08;;;;;;;6.60;4.13;;;1.80;99.90;;;;;;4969991;28;20070;-76
2023/01/31 01:31:39;;;;;;;3.47;3.17;;;1.80;99.90;;;;;;4969851;28;20054;-75
2023/01/31 01:34:12;;;;;;;4.45;4.00;;;1.80;99.90;;;;;;4953214;28;20051;-75
2023/01/31 01:36:40;;;;;;;3.60;3.28;;;1.80;99.90;;;;;;4969999;28;20054;-75
2023/01/31 01:39:11;;;;;;;11.40;4.65;;;1.70;99.90;;;;;;4951635;28;20054;-76
2023/01/31 01:41:41;;;;;;;11.23;4.45;;;1.70;99.90;;;;;;4943580;28;20051;-75
2023/01/31 01:44:46;;;;;;;6.50;3.97;;;1.80;99.90;;;;;;4969388;28;20057;-75
2023/01/31 01:47:20;;;;;;;8.32;4.18;;;1.80;99.90;;;;;;4936451;28;20526;-75
2023/01/31 01:49:55;;;;;;;3.65;3.35;;;1.80;99.90;;;;;;4969942;28;20054;-76
2023/01/31 01:52:25;;;;;;;6.65;4.65;;;1.80;99.90;;;;;;4952102;28;20054;-75
2023/01/31 01:55:00;;;;;;;6.03;4.93;;;1.70;99.90;;;;;;4969044;28;20050;-75
2023/01/31 01:57:36;;;;;;;7.28;5.47;;;1.70;99.90;;;;;;4945124;28;20057;-75
2023/01/31 02:00:13;;;;;;;7.22;4.85;;;1.70;99.90;;;;;;4970054;28;20062;-75
2023/01/31 02:02:44;;;;;;;5.05;4.38;;;1.70;99.90;;;;;;4969184;28;20534;-75
2023/01/31 02:05:18;;;;;;;6.50;4.43;;;1.70;99.90;;;;;;4968656;28;20538;-75
2023/01/31 02:07:47;;;;;;;10.50;5.03;;;1.70;99.90;;;;;;4936549;28;20047;-75
2023/01/31 02:10:19;;;;;;;5.68;4.25;;;1.70;99.90;;;;;;4965412;28;20507;-75
2023/01/31 02:12:46;;;;;;;3.70;3.40;;;1.70;99.90;;;;;;4951427;28;20054;-75
2023/01/31 02:15:14;;;;;;;4.43;4.03;;;1.70;99.90;;;;;;4969488;28;20056;-75
2023/01/31 02:17:42;;;;;;;5.50;5.00;;;1.70;99.90;;;;;;4952397;28;20050;-75
2023/01/31 02:20:25;;;;;;;7.25;5.68;;;1.70;99.90;;;;;;4951786;28;20051;-75
2023/01/31 02:23:21;;;;;;;8.13;5.88;;;1.70;99.90;;;;;;4950797;28;20051;-75
2023/01/31 02:25:59;;;;;;;5.78;4.43;;;1.60;99.90;;;;;;4968561;28;20050;-76
2023/01/31 02:28:43;;;;;;;5.18;3.42;;;1.60;99.90;;;;;;4968722;28;20494;-76
2023/01/31 02:31:40;;;;;;;7.15;4.40;;;1.60;99.90;;;;;;4952417;28;20407;-76
2023/01/31 02:34:11;;;;;;;6.75;3.78;;;1.70;99.90;;;;;;4939094;28;20131;-75
2023/01/31 02:37:08;;;;;;;4.78;4.28;;;1.70;99.90;;;;;;4968880;28;20082;-75
2023/01/31 02:40:00;;;;;;;7.85;3.83;;;1.70;99.90;;;;;;4950971;28;20154;-76
2023/01/31 02:42:48;;;;;;;8.27;5.82;;;1.70;99.90;;;;;;4903111;28;20053;-75
2023/01/31 02:45:32;;;;;;;5.30;3.92;;;1.70;99.90;;;;;;4935001;28;20051;-75
2023/01/31 02:48:08;;;;;;;12.65;4.93;;;1.70;99.90;;;;;;4950910;28;20538;-75
2023/01/31 02:51:08;;;;;;;7.22;4.32;;;1.70;99.90;;;;;;4946580;28;20046;-76
2023/01/31 02:53:57;;;;;;;6.78;5.13;;;1.60;99.90;;;;;;4939195;28;20111;-75
2023/01/31 02:56:29;;;;;;;5.60;4.47;;;1.60;99.90;;;;;;4946525;28;20039;-75
2023/01/31 02:59:25;;;;;;;8.77;3.35;;;1.70;99.90;;;;;;4939755;28;20062;-75
2023/01/31 03:02:01;;;;;;;13.27;5.30;;;1.60;99.90;;;;;;4954714;28;20039;-75
2023/01/31 03:04:35;;;;;;;3.88;3.45;;;1.60;99.90;;;;;;4923909;28;20047;-75
2023/01/31 03:07:11;;;;;;;4.70;4.30;;;1.60;99.90;;;;;;4955642;28;20050;-75
2023/01/31 03:09:45;;;;;;;13.50;4.68;;;1.60;99.90;;;;;;4970605;28;20050;-74
2023/01/31 03:12:26;;;;;;;6.88;4.93;;;1.60;99.90;;;;;;4947662;28;20058;-75
2023/01/31 03:15:12;;;;;;;8.57;6.07;;;1.60;99.90;;;;;;4956264;28;20047;-75
2023/01/31 03:17:46;;;;;;;7.82;3.25;;;1.60;99.90;;;;;;4958192;28;20066;-75
2023/01/31 03:20:22;;;;;;;8.27;3.55;;;1.60;99.90;;;;;;4960141;28;20047;-75
2023/01/31 03:22:59;;;;;;;4.75;3.55;;;1.50;99.90;;;;;;4960185;28;20059;-75
2023/01/31 03:25:32;;;;;;;3.45;3.15;;;1.60;99.90;;;;;;4960383;28;20057;-74
2023/01/31 03:28:11;;;;;;;7.88;4.57;;;1.60;99.90;;;;;;4959336;28;20046;-75
2023/01/31 03:31:04;;;;;;;4.25;3.85;;;1.50;99.90;;;;;;4945072;28;20054;-75
2023/01/31 03:33:38;;;;;;;5.60;4.57;;;1.50;99.90;;;;;;4959287;28;20046;-75
2023/01/31 03:36:13;;;;;;;5.03;3.97;;;1.40;99.90;;;;;;4959668;28;20050;-75
2023/01/31 03:38:56;;;;;;;15.38;5.85;;;1.50;99.90;;;;;;4960336;28;20061;-75
2023/01/31 03:41:40;;;;;;;3.63;3.33;;;1.50;99.90;;;;;;4976970;28;20046;-74
2023/01/31 03:44:47;;;;;;;10.95;5.65;;;1.50;99.90;;;;;;4976613;28;20047;-74
2023/01/31 03:47:30;;;;;;;10.25;5.30;;;1.50;99.90;;;;;;4959256;28;20050;-92
2023/01/31 03:50:04;;;;;;;3.85;3.08;;;1.50;99.90;;;;;;4978189;28;20043;-92
2023/01/31 03:53:23;;;;;;;7.32;4.25;;;1.50;99.90;;;;;;4977484;28;20039;-75
2023/01/31 03:56:00;;;;;;;7.30;3.80;;;1.40;99.90;;;;;;4958171;28;20050;-78
2023/01/31 03:58:33;;;;;;;9.65;5.20;;;1.40;99.90;;;;;;4977551;28;20050;-76
2023/01/31 04:01:04;;;;;;;4.35;3.13;;;1.40;99.90;;;;;;4996864;28;20041;-76
2023/01/31 04:03:38;;;;;;;5.65;4.22;;;1.40;99.90;;;;;;4949386;28;20031;-75
2023/01/31 04:06:07;;;;;;;15.68;5.93;;;1.40;99.90;;;;;;4974489;28;20042;-75
2023/01/31 04:08:35;;;;;;;11.60;3.65;;;1.30;99.90;;;;;;4981456;28;20029;-76
2023/01/31 04:11:08;;;;;;;;;;;1.40;99.90;;;;;;4982179;28;20053;-75
2023/01/31 04:13:36;;;;;;;6.65;5.22;;;1.40;99.90;;;;;;4998741;28;19913;-75
2023/01/31 04:16:05;;;;;;;7.30;5.05;;;1.40;99.90;;;;;;4992096;28;20097;-76
2023/01/31 04:18:34;;;;;;;6.43;4.70;;;1.40;99.90;;;;;;4997269;28;20034;-76
2023/01/31 04:21:05;;;;;;;9.30;4.80;;;1.40;99.90;;;;;;4982119;28;20039;-76
2023/01/31 04:23:32;;;;;;;9.98;3.78;;;1.30;99.90;;;;;;4965248;28;20053;-76
2023/01/31 04:26:00;;;;;;;4.72;4.10;;;1.30;99.90;;;;;;4997703;28;20054;-76
2023/01/31 04:28:28;;;;;;;4.20;3.90;;;1.30;99.90;;;;;;4995453;28;20031;-76
2023/01/31 04:30:56;;;;;;;4.38;3.95;;;1.30;99.90;;;;;;4981874;28;20063;-75
2023/01/31 04:33:24;;;;;;;6.70;4.68;;;1.30;99.90;;;;;;4992990;28;20057;-75
2023/01/31 04:35:53;;;;;;;5.63;4.28;;;1.30;99.90;;;;;;4970029;28;20058;-76
2023/01/31 04:38:20;;;;;;;6.30;4.10;;;1.30;99.90;;;;;;4953831;28;20055;-75
2023/01/31 04:40:48;;;;;;;5.38;4.28;;;1.30;99.90;;;;;;4966067;28;20047;-75
2023/01/31 04:43:16;;;;;;;5.05;4.60;;;1.30;99.90;;;;;;4968574;28;20752;-75
2023/01/31 04:45:44;;;;;;;6.72;4.93;;;1.30;99.90;;;;;;4953776;28;20502;-75
2023/01/31 04:48:12;;;;;;;6.07;5.28;;;1.30;99.90;;;;;;4949809;28;20064;-75
2023/01/31 04:50:39;;;;;;;9.18;4.50;;;1.20;99.90;;;;;;4889397;29;20091;-75
2023/01/31 04:53:10;;;;;;;5.88;4.03;;;1.20;99.90;;;;;;4889126;29;20067;-75
2023/01/31 04:55:38;;;;;;;5.05;4.65;;;1.20;99.90;;;;;;4893967;29;20047;-76
2023/01/31 04:58:07;;;;;;;5.90;3.58;;;1.20;99.90;;;;;;4893863;29;20052;-75
2023/01/31 05:00:35;;;;;;;16.45;4.75;;;1.20;99.90;;;;;;4894051;29;20051;-76
2023/01/31 05:03:03;;;;;;;4.65;4.35;;;1.20;99.90;;;;;;4905928;29;20064;-76
2023/01/31 05:05:32;;;;;;;7.38;5.07;;;1.20;99.90;;;;;;4881215;29;20464;-76
2023/01/31 05:08:03;;;;;;;6.95;4.40;;;1.20;99.90;;;;;;4903017;29;20133;-76
2023/01/31 05:10:34;;;;;;;15.18;4.07;;;1.00;99.90;;;;;;4903425;29;20437;-76
2023/01/31 05:13:02;;;;;;;8.25;4.75;;;1.20;99.90;;;;;;4902026;29;20054;-75
2023/01/31 05:15:31;;;;;;;6.00;3.85;;;1.10;99.90;;;;;;4947306;28;20520;-76
2023/01/31 05:18:02;;;;;;;3.78;3.40;;;1.10;99.90;;;;;;4936316;28;20053;-76
2023/01/31 05:20:38;;;;;;;5.47;3.35;;;1.10;99.90;;;;;;4969726;28;20049;-76
2023/01/31 05:23:07;;;;;;;4.25;3.70;;;1.10;99.90;;;;;;4964252;28;20587;-76
2023/01/31 05:25:36;;;;;;;9.00;4.03;;;1.10;99.90;;;;;;4969279;28;20065;-76
2023/01/31 05:28:05;;;;;;;3.53;3.25;;;1.10;99.90;;;;;;4952974;28;20503;-76
2023/01/31 05:30:34;;;;;;;4.95;3.00;;;1.10;99.90;;;;;;4969783;28;20066;-76
2023/01/31 05:33:03;;;;;;;5.45;4.78;;;1.00;99.90;;;;;;4969112;28;20057;-75
2023/01/31 05:35:30;;;;;;;5.03;4.38;;;1.00;99.90;;;;;;4937053;28;20057;-76
2023/01/31 05:37:58;;;;;;;4.70;2.85;;;1.00;99.90;;;;;;4968167;28;20061;-75
2023/01/31 05:40:26;;;;;;;4.20;3.80;;;1.00;99.90;;;;;;4934119;28;20062;-76
2023/01/31 05:43:01;;;;;;;5.72;4.10;;;1.00;99.90;;;;;;4953052;28;20055;-76
2023/01/31 05:45:30;;;;;;;7.00;4.15;;;1.00;99.90;;;;;;4968522;28;20051;-75
2023/01/31 05:47:58;;;;;;;7.78;3.70;;;1.00;99.90;;;;;;4946495;28;20061;-76
2023/01/31 05:50:26;;;;;;;4.53;3.80;;;1.00;99.90;;;;;;4945779;28;20054;-76
2023/01/31 05:52:58;;;;;;;13.57;4.25;;;1.00;99.90;;;;;;4968837;28;20055;-76
2023/01/31 05:55:27;;;;;;;4.53;3.72;;;1.00;99.90;;;;;;4945591;28;20066;-76
2023/01/31 05:57:56;;;;;;;3.92;3.63;;;1.00;99.90;;;;;;4969409;28;20051;-76
2023/01/31 06:00:23;;;;;;;4.18;3.35;;;1.00;99.90;;;;;;4968887;28;20046;-76
2023/01/31 06:02:51;;;;;;;7.70;3.95;;;1.00;99.90;;;;;;4968902;28;20051;-76
2023/01/31 06:05:21;;;;;;;7.22;3.33;;;0.90;99.90;;;;;;4969396;28;20062;-76
2023/01/31 06:07:49;;;;;;;10.02;3.25;;;0.90;99.90;;;;;;4951661;28;20050;-76
2023/01/31 06:10:17;;;;;;;4.93;3.97;;;1.00;99.90;;;;;;4950711;28;20523;-76
2023/01/31 06:12:47;;;;;;;7.13;4.13;;;1.00;99.90;;;;;;4951168;28;20054;-75
2023/01/31 06:15:15;;;;;;;6.60;3.47;;;1.00;99.90;;;;;;4952473;28;20427;-75
2023/01/31 06:17:43;;;;;;;5.05;3.65;;;0.90;99.90;;;;;;4951904;28;20046;-75
2023/01/31 06:20:10;;;;;;;9.52;3.30;;;0.90;99.90;;;;;;4969316;28;20061;-75
2023/01/31 06:22:39;;;;;;;5.88;3.55;;;0.90;99.90;;;;;;4952018;28;20062;-75
2023/01/31 06:25:07;;;;;;;9.38;4.90;;;0.80;99.90;;;;;;4950488;28;20423;-75
2023/01/31 06:27:35;;;;;;;5.40;4.20;;;0.90;99.90;;;;;;4951919;28;20062;-75
2023/01/31 06:30:03;;;;;;;6.43;4.20;;;0.90;99.90;;;;;;4968332;28;20140;-75
2023/01/31 06:32:31;;;;;;;10.82;4.32;;;0.80;99.90;;;;;;4968746;28;20050;-76
2023/01/31 06:35:00;;;;;;;4.50;3.85;;;0.70;99.90;;;;;;4952238;28;20062;-75
2023/01/31 06:37:29;;;;;;;9.75;3.63;;;0.70;99.90;;;;;;4951610;28;20412;-75
2023/01/31 06:39:58;;;;;;;4.68;3.55;;;0.70;99.90;;;;;;4967813;28;20050;-76
2023/01/31 06:42:26;;;;;;;4.22;3.67;;;0.70;99.90;;;;;;4962961;28;20183;-75
2023/01/31 06:44:56;;;;;;;6.93;4.15;;;0.70;99.90;;;;;;4968691;28;20058;-75
2023/01/31 06:47:24;;;;;;;3.22;2.92;;;0.70;99.90;;;;;;4969708;28;20513;-75
2023/01/31 06:49:52;;;;;;;3.80;3.10;;;0.80;99.90;;;;;;4951721;28;20163;-76
2023/01/31 06:52:20;;;;;;;4.43;3.60;;;0.70;99.90;;;;;;4966882;28;20047;-75
2023/01/31 06:54:48;;;;;;;4.10;3.05;;;0.70;99.90;;;;;;4951621;28;20042;-76
2023/01/31 06:57:17;;;;;;;7.60;3.45;;;0.70;99.90;;;;;;4935535;28;20046;-76
2023/01/31 06:59:45;;;;;;;3.33;3.03;;;0.70;99.90;;;;;;4969662;28;20050;-75
2023/01/31 07:02:12;;;;;;;3.83;3.50;;;0.70;99.90;;;;;;4968638;28;20074;-75
2023/01/31 07:04:40;;;;;;;9.45;4.10;;;0.70;99.90;;;;;;4968471;28;20057;-75
2023/01/31 07:07:08;;;;;;;5.60;4.47;;;0.70;99.90;;;;;;4968332;28;20055;-75
2023/01/31 07:09:37;;;;;;;4.38;2.95;;;0.70;99.90;;;;;;4948080;28;20047;-75
2023/01/31 07:12:05;;;;;;;11.68;4.95;;;0.70;99.90;;;;;;4960579;28;20055;-75
2023/01/31 07:14:33;;;;;;;3.53;3.33;;;0.70;99.90;;;;;;4969081;28;20051;-75
2023/01/31 07:17:04;;;;;;;4.00;3.10;;;0.70;99.90;;;;;;4962276;28;20046;-75
2023/01/31 07:19:33;;;;;;;5.28;4.35;;;0.70;99.90;;;;;;4968094;28;20058;-76
2023/01/31 07:22:00;;;;;;;4.82;3.92;;;0.70;99.90;;;;;;4935716;28;20371;-75
2023/01/31 07:24:28;;;;;;;7.85;4.40;;;0.80;99.90;;;;;;4966597;28;20043;-75
2023/01/31 07:26:56;;;;;;;5.13;2.50;;;0.80;99.90;;;;;;4951796;28;20054;-76
2023/01/31 07:29:24;;;;;;;7.70;4.20;;;0.80;99.90;;;;;;4968550;28;20051;-75
2023/01/31 07:31:53;;;;;;;5.57;3.40;;;0.80;99.90;;;;;;4950968;28;20047;-78
2023/01/31 07:34:21;;;;;;;4.38;4.05;;;0.80;99.90;;;;;;4968563;28;20051;-75
2023/01/31 07:36:49;;;;;;;13.00;3.72;;;0.80;99.90;;;;;;4951017;28;20043;-76
2023/01/31 07:39:17;;;;;;;8.85;4.38;;;0.90;99.90;;;;;;4967392;28;20496;-75
2023/01/31 07:41:45;;;;;;;5.55;3.78;;;0.90;99.90;;;;;;4967772;28;20526;-76
2023/01/31 07:44:13;;;;;;;4.45;3.35;;;0.90;99.90;;;;;;4938490;28;20485;-76
2023/01/31 07:46:42;;;;;;;9.15;3.53;;;0.90;99.90;;;;;;4954827;28;20050;-76
2023/01/31 07:49:10;;;;;;;4.75;4.35;;;1.00;99.90;;;;;;4953850;28;20522;-75
2023/01/31 07:51:38;;;;;;;10.02;4.95;;;1.10;99.90;;;;;;4958916;28;20055;-76
2023/01/31 07:54:08;;;;;;;6.40;2.92;;;1.20;99.90;;;;;;4966526;28;20043;-75
2023/01/31 07:56:37;;;;;;;6.43;4.90;;;1.20;99.90;;;;;;4974660;28;20057;-75
2023/01/31 07:59:05;;;;;;;3.85;3.55;;;1.30;99.90;;;;;;4966300;28;20065;-75
2023/01/31 08:04:21;;;;;;;3.83;3.50;;;1.40;99.90;;;;;;4942795;28;20063;-75
2023/01/31 08:06:53;;;;;;;4.03;3.45;;;1.50;99.90;;;;;;4960554;28;20078;-76
2023/01/31 08:09:21;;;;;;;4.57;4.05;;;1.50;99.90;;;;;;4968208;28;20053;-75
2023/01/31 08:11:50;;;;;;;4.95;3.72;;;1.50;99.90;;;;;;4951859;28;20495;-75
2023/01/31 08:14:24;;;;;;;7.68;3.58;;;1.50;99.90;;;;;;4922616;28;20058;-75
2023/01/31 08:16:52;;;;;;;3.70;3.38;;;1.50;99.90;;;;;;4976163;28;20503;-75
2023/01/31 08:19:19;;;;;;;8.00;4.40;;;1.50;99.90;;;;;;4969317;28;20050;-75
2023/01/31 08:21:52;;;;;;;6.57;3.78;;;1.40;99.90;;;;;;4967936;28;20089;-75
2023/01/31 08:24:20;;;;;;;5.63;3.33;;;1.50;99.90;;;;;;4968113;28;20054;-76
2023/01/31 08:26:48;;;;;;;8.23;4.18;;;1.50;99.90;;;;;;4967562;28;20043;-76
2023/01/31 08:29:16;;;;;;;7.03;4.55;;;1.60;99.90;;;;;;4952242;28;20043;-75
2023/01/31 08:31:43;;;;;;;5.38;3.22;;;1.70;99.90;;;;;;4975408;28;20053;-75
2023/01/31 08:34:11;;;;;;;5.20;3.28;;;1.70;99.90;;;;;;4993909;28;20046;-75
2023/01/31 08:36:39;;;;;;;8.05;3.50;;;1.70;99.90;;;;;;4986153;28;20050;-76
2023/01/31 08:39:07;;;;;;;4.93;3.45;;;1.60;99.90;;;;;;4976376;28;20100;-76
2023/01/31 08:41:36;;;;;;;9.10;3.67;;;1.70;99.90;;;;;;4965906;28;20420;-76
2023/01/31 08:44:05;;;;;;;4.20;3.30;;;1.70;99.90;;;;;;4952598;28;20051;-75
2023/01/31 08:46:35;;;;;;;7.00;2.63;;;1.70;99.90;;;;;;4956827;29;20052;-75
2023/01/31 08:49:05;;;;;;;6.10;3.67;;;1.70;99.90;;;;;;4966190;28;20391;-75
2023/01/31 08:51:33;;;;;;;4.75;4.38;;;1.80;99.90;;;;;;4973568;28;20416;-75
2023/01/31 08:54:01;;;;;;;4.40;2.53;;;1.70;99.90;;;;;;4990521;28;20047;-75
2023/01/31 08:56:29;;;;;;;6.68;3.55;;;1.70;99.90;;;;;;4944388;28;20054;-76
2023/01/31 08:58:57;;;;;;;4.78;2.70;;;1.70;99.90;;;;;;4974448;28;20061;-77
2023/01/31 09:01:26;;;;;;;4.88;3.40;;;1.70;99.90;;;;;;4975294;28;20038;-76
2023/01/31 09:03:55;;;;;;;4.40;3.92;;;1.80;99.90;;;;;;4965251;28;20059;-76
2023/01/31 09:06:26;;;;;;;13.70;4.00;;;1.80;99.90;;;;;;4947680;28;20486;-76
2023/01/31 09:08:57;;;;;;;8.65;3.90;;;1.80;99.90;;;;;;4986620;28;20111;-75
2023/01/31 09:11:29;;;;;;;4.78;3.63;;;1.80;99.90;;;;;;4978056;28;20058;-76
2023/01/31 09:13:57;;;;;;;2.63;2.53;;;1.80;99.90;;;;;;4981617;28;20045;-76
2023/01/31 09:16:25;;;;;;;5.13;3.20;;;1.80;99.90;;;;;;4978044;28;20053;-76
2023/01/31 09:18:54;;;;;;;8.02;3.75;;;1.80;99.90;;;;;;4988114;28;20432;-75
2023/01/31 09:21:23;;;;;;;6.55;3.00;;;1.80;99.90;;;;;;4989584;28;20035;-76
2023/01/31 09:23:57;;;;;;;12.68;3.25;;;1.90;99.90;;;;;;4982190;28;20035;-76
2023/01/31 09:26:25;;;;;;;14.70;4.93;;;2.00;99.90;;;;;;4941499;28;20035;-76
2023/01/31 09:28:57;;;;;;;4.35;3.72;;;2.00;99.90;;;;;;4976723;28;20034;-76
2023/01/31 09:31:25;;;;;;;7.97;3.60;;;2.10;99.90;;;;;;4994680;28;20035;-76
2023/01/31 09:33:53;;;;;;;7.28;3.80;;;2.20;99.90;;;;;;4987786;28;20041;-76
2023/01/31 09:36:23;;;;;;;6.63;3.70;;;2.30;99.90;;;;;;4998945;28;20053;-76
2023/01/31 09:38:55;;;;;;;6.93;3.97;;;2.30;99.90;;;;;;4994305;28;20039;-76
2023/01/31 09:41:32;;;;;;;3.35;3.05;;;2.60;99.90;;;;;;4973736;28;20031;-76
2023/01/31 09:44:17;;;;;;;4.18;3.25;;;3.00;99.90;;;;;;4976724;28;20332;-77
2023/01/31 09:47:08;;;;;;;6.85;3.40;;;2.80;99.90;;;;;;4994962;28;20055;-75
2023/01/31 09:49:53;;;;;;;7.10;3.53;;;2.70;99.90;;;;;;4960449;28;20054;-75
2023/01/31 09:52:22;;;;;;;9.15;3.17;;;2.50;99.90;;;;;;4948771;28;20494;-75
2023/01/31 09:54:49;;;;;;;9.27;4.05;;;2.40;99.90;;;;;;4969407;28;20050;-76
2023/01/31 09:57:52;;;;;;;11.45;3.78;;;2.30;99.90;;;;;;4919333;28;20063;-75
2023/01/31 10:00:45;;;;;;;5.70;2.83;;;2.20;99.90;;;;;;4950921;28;20050;-76
2023/01/31 10:03:55;;;;;;;5.82;3.38;;;2.30;99.90;;;;;;4963513;28;20054;-75
2023/01/31 10:06:29;;;;;;;;;;;2.40;99.90;;;;;;4847106;29;20052;-76
2023/01/31 10:09:19;;;;;;;;;;;2.30;99.90;;;;;;4947016;28;19926;-76
2023/01/31 10:11:51;;;;;;;5.88;3.25;;;2.30;99.90;;;;;;4950748;28;20565;-76
2023/01/31 10:14:51;;;;;;;3.90;3.38;;;2.40;99.90;;;;;;4965306;28;20057;-75
2023/01/31 10:17:27;;;;;;;3.67;3.33;;;2.30;99.90;;;;;;4960584;28;20065;-75
2023/01/31 10:20:12;;;;;;;4.97;3.05;;;2.30;99.90;;;;;;4948029;28;20055;-75
2023/01/31 10:22:58;;;;;;;9.65;4.03;;;2.30;99.90;;;;;;4965738;28;20554;-75
2023/01/31 10:25:49;;;;;;;4.85;3.72;;;2.30;99.90;;;;;;4940400;28;20043;-76
2023/01/31 10:28:37;;;;;;;8.95;4.10;;;2.30;99.90;;;;;;4969618;28;20050;-77
2023/01/31 10:31:32;;;;;;;15.27;4.90;;;2.40;99.90;;;;;;4966854;28;20617;-77
2023/01/31 10:34:23;;;;;;;4.47;3.50;;;2.40;99.90;;;;;;4963523;28;20443;-77
2023/01/31 10:36:51;;;;;;;5.97;4.10;;;2.60;99.90;;;;;;4950099;28;20070;-76
2023/01/31 10:39:25;;;;;;;4.47;3.83;;;2.70;99.90;;;;;;4934537;28;20050;-77
2023/01/31 10:42:02;;;;;;;8.00;2.97;;;2.80;99.90;;;;;;4957891;28;20062;-76
2023/01/31 10:44:46;;;;;;;4.88;2.70;;;2.80;99.90;;;;;;4957245;28;20577;-74
2023/01/31 10:47:16;;;;;;;5.40;2.77;;;2.70;99.90;;;;;;4949385;28;20055;-75
2023/01/31 10:49:53;;;;;;;4.20;3.15;;;2.60;99.90;;;;;;4965715;28;20583;-76
2023/01/31 10:52:39;;;;;;;6.13;3.30;;;2.70;99.90;;;;;;4945988;28;20049;-77
2023/01/31 10:55:42;;;;;;;10.38;2.85;;;2.70;99.90;;;;;;4966852;28;20320;-76
2023/01/31 10:58:17;;;;;;;7.63;2.92;;;2.70;99.90;;;;;;4947411;28;20046;-75
2023/01/31 11:00:48;;;;;;;4.13;3.72;;;2.60;99.90;;;;;;4949263;28;20047;-76
2023/01/31 11:03:16;;;;;;;2.95;2.65;;;2.60;99.90;;;;;;4946704;28;20059;-77
2023/01/31 11:05:53;;;;;;;4.55;2.95;;;2.60;99.90;;;;;;4965731;28;20050;-75
2023/01/31 11:08:41;;;;;;;3.63;1.88;;;2.60;99.90;;;;;;4965065;28;20054;-76
2023/01/31 11:11:11;;;;;;;6.50;3.15;;;2.60;99.90;;;;;;4960917;28;20062;-76
2023/01/31 11:13:39;;;;;;;3.53;3.03;;;2.60;99.90;;;;;;4942016;28;20063;-77
2023/01/31 11:16:10;;;;;;;4.70;2.92;;;2.60;99.90;;;;;;4967204;28;20058;-77
2023/01/31 11:18:48;;;;;;;3.47;3.03;;;2.70;99.90;;;;;;4968969;28;20054;-75
2023/01/31 11:21:29;;;;;;;7.38;3.20;;;2.60;99.90;;;;;;4951182;28;20367;-77
2023/01/31 11:24:21;;;;;;;4.15;3.58;;;2.60;99.90;;;;;;4965508;28;20053;-77
2023/01/31 11:26:59;;;;;;;10.68;2.67;;;2.50;99.90;;;;;;4968485;28;20066;-77
2023/01/31 11:29:34;;;;;;;5.22;2.65;;;2.60;99.90;;;;;;4945806;28;20070;-77
2023/01/31 11:32:06;;;;;;;6.50;2.65;;;2.60;99.90;;;;;;4968847;28;20058;-77
2023/01/31 11:34:34;;;;;;;3.38;2.92;;;2.70;99.90;;;;;;4950742;28;20490;-78
2023/01/31 11:37:17;;;;;;;11.15;3.80;;;2.70;99.90;;;;;;4944902;28;20055;-77
2023/01/31 11:40:03;;;;;;;4.13;2.80;;;2.60;99.90;;;;;;4961245;28;20428;-78
2023/01/31 11:42:31;;;;;;;2.28;2.10;;;2.70;99.90;;;;;;4945154;28;20401;-77
2023/01/31 11:45:15;;;;;;;4.70;3.08;;;2.70;99.90;;;;;;4951884;28;20046;-77
2023/01/31 11:47:48;;;;;;;2.65;2.45;;;2.60;99.90;;;;;;4966035;28;20050;-77
2023/01/31 11:50:37;;;;;;;5.10;2.38;;;2.60;99.90;;;;;;4963882;28;20077;-77
2023/01/31 11:53:37;;;;;;;5.88;3.25;;;2.60;99.90;;;;;;4962543;28;20618;-76
2023/01/31 11:56:21;;;;;;;3.63;2.92;;;2.60;99.90;;;;;;4945727;28;20074;-78
2023/01/31 11:58:53;;;;;;;11.98;2.72;;;2.60;99.90;;;;;;4968114;28;20066;-78
2023/01/31 12:01:26;;;;;;;3.35;2.65;;;2.50;99.90;;;;;;4967576;28;20415;-78
2023/01/31 12:04:00;;;;;;;7.40;2.92;;;2.60;99.90;;;;;;4931127;28;20368;-79
2023/01/31 12:06:34;;;;;;;4.25;3.38;;;2.60;99.90;;;;;;4960742;28;20196;-77
2023/01/31 12:09:03;;;;;;;;;;;2.60;99.90;;;;;;4948710;28;20415;-77
2023/01/31 12:11:34;;;;;;;7.95;3.28;;;2.60;99.90;;;;;;4950679;28;19926;-78
2023/01/31 12:14:16;;;;;;;13.83;3.30;;;2.70;99.90;;;;;;4964363;28;20605;-78
2023/01/31 12:16:45;;;;;;;3.88;3.53;;;2.70;99.90;;;;;;4958404;28;20447;-77
2023/01/31 12:19:13;;;;;;;4.05;3.15;;;2.70;99.90;;;;;;4950495;28;20389;-77
2023/01/31 12:22:19;;;;;;;4.15;3.40;;;2.70;99.90;;;;;;4963983;28;20070;-78
2023/01/31 12:25:15;;;;;;;11.60;3.67;;;2.70;99.90;;;;;;4933768;28;20047;-78
2023/01/31 12:28:16;;;;;;;5.80;3.90;;;2.70;99.90;;;;;;4966157;28;20051;-77
2023/01/31 12:31:26;;;;;;;2.90;2.70;;;2.70;99.90;;;;;;4934721;28;20419;-78
2023/01/31 12:34:16;;;;;;;8.82;3.67;;;2.70;99.90;;;;;;4956875;28;20046;-78
2023/01/31 12:37:22;;;;;;;5.15;3.35;;;2.70;99.90;;;;;;4959302;28;20054;-78
2023/01/31 12:40:00;;;;;;;4.30;2.97;;;2.70;99.90;;;;;;4861202;28;20073;-77
2023/01/31 12:43:20;;;;;;;3.92;3.63;;;2.70;99.90;;;;;;4947564;28;20051;-77
2023/01/31 12:46:00;;;;;;;5.78;3.05;;;2.80;99.90;;;;;;4926081;28;20400;-78
2023/01/31 12:48:46;;;;;;;9.77;3.60;;;2.90;99.90;;;;;;4959628;28;20397;-77
2023/01/31 12:51:35;;;;;;;4.32;3.78;;;3.00;99.90;;;;;;4969913;28;20054;-79
2023/01/31 12:54:23;;;;;;;6.25;3.95;;;3.10;99.90;;;;;;4967732;28;20416;-78
2023/01/31 12:57:06;;;;;;;4.57;3.45;;;3.10;99.90;;;;;;4946526;28;20046;-77
2023/01/31 12:59:46;;;;;;;6.07;4.32;;;3.10;99.90;;;;;;4946003;28;20058;-78
2023/01/31 13:02:52;;;;;;;3.53;3.30;;;3.10;99.90;;;;;;4933929;28;20055;-78
2023/01/31 13:05:44;;;;;;;4.78;4.32;;;3.10;99.90;;;;;;4947428;28;20059;-77
2023/01/31 13:08:18;;;;;;;10.30;3.03;;;3.00;99.90;;;;;;4941308;28;20051;-77
2023/01/31 13:10:51;;;;;;;9.60;2.83;;;3.00;99.90;;;;;;4949768;28;20419;-78
2023/01/31 13:13:31;;;;;;;4.63;2.88;;;3.00;99.90;;;;;;4942235;28;20054;-78
2023/01/31 13:16:12;;;;;;;7.43;4.43;;;3.10;99.90;;;;;;4955367;28;20526;-78
2023/01/31 13:18:42;;;;;;;4.32;3.38;;;3.10;99.90;;;;;;4945217;28;20085;-78
2023/01/31 13:21:15;;;;;;;8.20;3.42;;;3.10;99.90;;;;;;4966988;28;20069;-78
2023/01/31 13:23:47;;;;;;;4.57;3.67;;;3.10;99.90;;;;;;4974288;28;20066;-77
2023/01/31 13:26:28;;;;;;;5.55;4.03;;;3.10;99.90;;;;;;4977152;28;20077;-77
2023/01/31 13:29:00;;;;;;;8.03;4.53;;;3.10;99.90;;;;;;4945448;28;20431;-79
2023/01/31 13:31:38;;;;;;;4.72;3.47;;;3.20;99.90;;;;;;4968255;28;20050;-78
2023/01/31 13:34:28;;;;;;;6.40;4.18;;;3.20;99.90;;;;;;4935759;28;20376;-78
2023/01/31 13:37:22;;;;;;;6.32;4.38;;;3.20;99.90;;;;;;4974251;28;20061;-78
2023/01/31 13:39:56;;;;;;;8.88;3.72;;;3.20;99.90;;;;;;4963777;28;20065;-78